Pagrindinis puslapis
METAR-TAF:

METAR-TAF

Oro uostai :

Nevis, Antigva ir Barbuda

platuma: 17-12N, ilguma: 062-35W, Aukštis: 17 m

Dabartinis oras

Ataskaita buvo paskelbta 54 minutes, ne 15:00 UTC
Vėjas 7 kt iš Šiaurės
Temperatūra 30°C
Drėgmė 79%
Slėgis 1014 hPa
Matomumas 10 km arba daugiau
Mažai debesys ne aukštis 1600 ft, Liūtiniai kamuoliniai debesys.
Išsisklaidę debesys ne aukštis 2100 ft
Liūtis kaimynystėje

METAR: TKPN 211500Z 35007KT 9999 VCSH FEW016CB SCT021 30/26 Q1014

Laikas: 11:54 (15:54 UTC)

Prognozė

Ataskaita buvo paskelbta 4 valandos ir 54 minutes, ne 11:00 UTC
Prognozė galioja nuo 21 metu 12 UTC su 22 metu 12 UTC
Vėjas 5 kt iš Pietvakarių
Matomumas 10 km arba daugiau
Išsisklaidę debesys ne aukštis 1900 ft
Tikimybė 40% :
Laikinai
nuo 21 metu 15 UTC su 21 metu 19 UTC
lietus

TAF: TKPN 211100Z 2112/2212 23005KT 9999 SCT019 PROB40 TEMPO 2115/2119 SHRA

Orai ataskaitas ir orų prognozės (METAR, TAF).

turimą stotys yra geltonos ir raudonos taškus žemėlapyje.

Perkelti pele per norėdami pamatyti stoties vardą.

Tada spustelėkite, norėdami matyti oro stebėjimo ir prognozės.

Norėdami pakeisti žemėlapį: spustelėkite ant žalios mygtukų su juodo kryžiaus žemyn,; žalią mygtuką su brūkšneliu, jei norite nutolinti; arba žalių rodyklių gretimoms žemėlapius.


METAR-TAF: